OIBS

Details ICAO OIBS
Name SIRRI ISLAND
Region Iran
Timezone Asia/Tehran (UTC+4.5)
Plans Departing 5
Arriving 7
Stats Elevation 43 ft / 13 m (AMSL)
Location 25.909145° 54.539429°
Runways 1
Magnetic Variation 2.274° E
Sunrise 2018-05-21 01:34:47 UTC / 2018-05-21 06:04:47 Local
Sunset 2018-05-21 15:04:54 UTC / 2018-05-21 19:34:54 Local
Advertisement - Login to hide

Runways

ID Width Length Bearing (true) Bearing (mag) Surface Threshold Offset Overrun Length
12 175 ft / 53 m 8,350 ft / 2,545 m 127.81° 125.54° Asphalt 4,160 ft / 1,268 m 180 ft / 55 m
30 175 ft / 53 m 8,350 ft / 2,545 m 307.81° 305.54° Asphalt 0 ft / 0 m 200 ft / 61 m

Map

Weather


0- 5 10 15 20 25 30 35+ Temperature / ° C

Clouds and Precipitation
Forecast for 2018-05-21 12:00 UTC. Updated 2 hours ago

Ground ~20,000 ft ~40,000 ft Winds

METAR

OIBS 211000Z 10006KT 5000 HZ NSC 32/25 Q1009

TAF

Not found

Frequencies

Tower 129.00 MHz INFO
Warning: Do not use this data for real-world aviation or navigation. No guarantee of current accuracy is given.